Time;durP1;ratioP1;P1;durP2;ratioP2;P2;SDS_P1;SDS_P2;PMS_P1;PMS_P2;Temp;Humidity;BMP_temperature;BMP_pressure;BME280_temperature;BME280_humidity;BME280_pressure;Samples;Min_cycle;Max_cycle;Signal;HPM_P1;HPM_P2
2023/10/30 00:01:39;;;;;;;9.05;3.38;;;;;;;15.31;nan;99148.63;4934399;28;101177;-80
2023/10/30 00:04:06;;;;;;;8.73;3.42;;;;;;;15.36;nan;99165.84;4918483;28;96544;-80
2023/10/30 00:06:35;;;;;;;15.07;3.20;;;;;;;15.33;nan;99171.34;4934689;28;96866;-80
2023/10/30 00:09:00;;;;;;;6.78;2.80;;;;;;;15.31;nan;99172.41;4918375;28;97645;-80
2023/10/30 00:11:27;;;;;;;11.10;2.90;;;;;;;15.25;nan;99154.34;4918158;28;101144;-80
2023/10/30 00:13:52;;;;;;;6.28;3.00;;;;;;;15.28;nan;99151.47;4934617;28;96661;-80
2023/10/30 00:16:18;;;;;;;7.53;2.83;;;;;;;15.27;nan;99157.69;4934488;28;96984;-80
2023/10/30 00:18:44;;;;;;;9.73;3.47;;;;;;;15.30;nan;99166.28;4935680;28;97718;-81
2023/10/30 00:21:09;;;;;;;9.82;3.28;;;;;;;15.28;nan;99162.06;4950718;28;101192;-80
2023/10/30 00:23:35;;;;;;;6.22;2.63;;;;;;;15.22;nan;99154.56;4951086;28;96598;-81
2023/10/30 00:26:02;;;;;;;9.55;3.20;;;;;;;15.22;nan;99173.91;4918209;28;96848;-80
2023/10/30 00:28:29;;;;;;;6.63;2.85;;;;;;;15.17;nan;99170.75;4917641;28;101695;-80
2023/10/30 00:30:55;;;;;;;7.93;3.60;;;;;;;15.14;nan;99161.22;4918091;28;101838;-80
2023/10/30 00:33:21;;;;;;;8.02;3.22;;;;;;;15.18;nan;99164.50;4918236;28;96566;-80
2023/10/30 00:35:47;;;;;;;7.72;3.17;;;;;;;15.17;nan;99173.38;4918564;28;96753;-81
2023/10/30 00:38:12;;;;;;;6.18;2.65;;;;;;;15.16;nan;99180.47;4917875;28;101657;-82
2023/10/30 00:40:38;;;;;;;7.35;3.17;;;;;;;15.18;nan;99164.50;4917697;28;101488;-80
2023/10/30 00:43:04;;;;;;;9.27;3.58;;;;;;;15.19;nan;99182.06;4917862;28;96556;-80
2023/10/30 00:45:30;;;;;;;6.15;3.03;;;;;;;15.14;nan;99169.16;4917858;28;96956;-82
2023/10/30 00:47:55;;;;;;;9.75;3.03;;;;;;;15.17;nan;99174.22;4933772;28;101400;-82
2023/10/30 00:50:21;;;;;;;10.57;3.45;;;;;;;15.09;nan;99173.91;4901706;28;101556;-82
2023/10/30 00:52:48;;;;;;;7.53;3.15;;;;;;;15.10;nan;99175.63;4933655;28;96793;-82
2023/10/30 00:55:14;;;;;;;8.75;3.47;;;;;;;15.15;nan;99188.50;4917965;28;96826;-82
2023/10/30 00:57:39;;;;;;;13.65;3.55;;;;;;;15.14;nan;99178.88;4933717;28;101004;-82
2023/10/30 01:00:05;;;;;;;7.55;2.92;;;;;;;15.09;nan;99170.44;4917593;28;101103;-82
2023/10/30 01:02:31;;;;;;;6.82;3.17;;;;;;;15.05;nan;99158.41;4950510;28;96672;-82
2023/10/30 01:04:57;;;;;;;7.95;2.70;;;;;;;14.97;nan;99160.72;4917862;28;97032;-82
2023/10/30 01:07:23;;;;;;;6.70;3.47;;;;;;;14.97;nan;99156.28;4949843;28;101154;-82
2023/10/30 01:09:49;;;;;;;9.18;3.17;;;;;;;14.67;nan;99128.44;4950528;28;98052;-81
2023/10/30 01:12:14;;;;;;;4.97;2.60;;;;;;;14.85;nan;99152.72;4917817;28;96660;-82
2023/10/30 01:14:40;;;;;;;7.32;2.95;;;;;;;14.89;nan;99142.75;4917976;28;96769;-82
2023/10/30 01:17:06;;;;;;;6.65;2.85;;;;;;;15.07;nan;99156.50;4933323;28;98494;-81
2023/10/30 01:19:31;;;;;;;7.35;3.50;;;;;;;14.98;nan;99136.00;4933473;28;101520;-82
2023/10/30 01:21:57;;;;;;;9.98;3.42;;;;;;;15.00;nan;99140.22;4935180;28;96631;-82
2023/10/30 01:24:23;;;;;;;8.15;3.10;;;;;;;15.10;nan;99162.41;4934017;28;96852;-82
2023/10/30 01:26:48;;;;;;;13.65;3.60;;;;;;;14.96;nan;99127.34;4917110;28;100942;-80
2023/10/30 01:29:14;;;;;;;6.53;3.38;;;;;;;14.85;nan;99109.59;4933277;28;101740;-76
2023/10/30 01:31:39;;;;;;;6.80;3.10;;;;;;;15.00;nan;99140.22;4933844;28;96576;-76
2023/10/30 01:34:05;;;;;;;8.25;3.22;;;;;;;14.99;nan;99141.19;4934251;28;96888;-75
2023/10/30 01:36:31;;;;;;;6.00;2.70;;;;;;;14.90;nan;99128.63;4917464;28;98385;-76
2023/10/30 01:38:57;;;;;;;12.88;3.38;;;;;;;15.07;nan;99146.78;4949371;28;100916;-76
2023/10/30 01:41:23;;;;;;;10.00;3.38;;;;;;;14.89;nan;99098.72;4920296;28;96652;-77
2023/10/30 01:43:49;;;;;;;9.45;3.10;;;;;;;14.97;nan;99123.75;4938288;28;96851;-76
2023/10/30 01:46:15;;;;;;;6.75;3.00;;;;;;;15.02;nan;99129.56;4923670;28;96795;-77
2023/10/30 01:48:43;;;;;;;5.72;3.20;;;;;;;14.96;nan;99108.84;4939588;28;101252;-77
2023/10/30 01:51:09;;;;;;;10.82;3.80;;;;;;;15.02;nan;99125.09;4939883;28;96652;-78
2023/10/30 01:53:36;;;;;;;4.80;2.53;;;;;;;14.96;nan;99119.44;4956473;28;96752;-76
2023/10/30 01:56:03;;;;;;;9.02;3.30;;;;;;;15.01;nan;99128.72;4939671;28;98160;-76
2023/10/30 01:58:29;;;;;;;7.57;2.72;;;;;;;14.99;nan;99121.84;4923712;28;101445;-77
2023/10/30 02:00:56;;;;;;;9.20;2.88;;;;;;;14.94;nan;99112.44;4939718;28;96619;-76
2023/10/30 02:03:22;;;;;;;9.73;2.97;;;;;;;14.75;nan;99077.72;4939747;28;96866;-76
2023/10/30 02:05:47;;;;;;;7.15;3.33;;;;;;;15.01;nan;99109.34;4939215;28;98440;-77
2023/10/30 02:08:16;;;;;;;7.13;3.30;;;;;;;14.99;nan;99108.63;4939559;28;98194;-76
2023/10/30 02:10:41;;;;;;;9.75;4.03;;;;;;;15.01;nan;99109.34;4939531;28;96644;-79
2023/10/30 02:13:07;;;;;;;6.38;3.15;;;;;;;14.98;nan;99123.66;4939548;28;96871;-76
2023/10/30 02:15:33;;;;;;;10.05;4.28;;;;;;;14.98;nan;99128.94;4939007;28;101389;-77
2023/10/30 02:17:59;;;;;;;7.78;3.38;;;;;;;15.04;nan;99139.06;4939329;28;97852;-76
2023/10/30 02:20:25;;;;;;;9.52;3.78;;;;;;;15.01;nan;99141.94;4939445;28;96541;-77
2023/10/30 02:22:51;;;;;;;10.38;3.92;;;;;;;14.97;nan;99139.59;4956356;28;96802;-78
2023/10/30 02:25:24;;;;;;;11.18;3.22;;;;;;;14.85;nan;99128.94;4938948;28;101141;-76
2023/10/30 02:27:50;;;;;;;6.20;2.97;;;;;;;15.00;nan;99144.66;4955271;28;98328;-76
2023/10/30 02:30:16;;;;;;;6.13;3.70;;;;;;;14.99;nan;99137.69;4938751;28;96536;-77
2023/10/30 02:32:44;;;;;;;5.88;3.20;;;;;;;14.87;nan;99115.63;4939237;28;96953;-76
2023/10/30 02:35:16;;;;;;;7.15;3.28;;;;;;;14.92;nan;99134.63;4955431;28;97996;-77
2023/10/30 02:37:43;;;;;;;8.77;3.05;;;;;;;14.88;nan;99147.22;4938961;28;98097;-77
2023/10/30 02:40:09;;;;;;;7.60;3.42;;;;;;;14.93;nan;99150.38;4939455;28;96546;-77
2023/10/30 02:42:35;;;;;;;8.48;3.63;;;;;;;14.93;nan;99150.38;4939431;28;96705;-76
2023/10/30 02:45:03;;;;;;;9.02;3.58;;;;;;;14.93;nan;99147.75;4935117;28;98076;-76
2023/10/30 02:47:33;;;;;;;8.10;3.88;;;;;;;14.86;nan;99145.63;4935938;28;98079;-76
2023/10/30 02:49:59;;;;;;;9.00;3.72;;;;;;;14.83;nan;99140.56;4935853;28;96709;-76
2023/10/30 02:52:24;;;;;;;8.82;4.00;;;;;;;14.46;nan;99091.13;4935294;28;96945;-76
2023/10/30 02:54:50;;;;;;;19.30;4.13;;;;;;;14.84;nan;99158.13;4919178;28;98526;-76
2023/10/30 02:57:16;;;;;;;12.98;3.78;;;;;;;14.58;nan;99115.88;4919222;28;101105;-76
2023/10/30 02:59:42;;;;;;;11.50;3.38;;;;;;;14.86;nan;99151.75;4919746;28;96545;-76
2023/10/30 03:02:09;;;;;;;9.80;3.25;;;;;;;14.75;nan;99138.47;4919874;28;96798;-76
2023/10/30 03:04:35;;;;;;;9.13;3.60;;;;;;;14.79;nan;99161.06;4919517;28;98016;-77
2023/10/30 03:07:01;;;;;;;13.48;4.18;;;;;;;14.56;nan;99127.50;4951343;28;100711;-77
2023/10/30 03:09:29;;;;;;;10.40;3.42;;;;;;;14.66;nan;99157.56;4919682;28;96558;-77
2023/10/30 03:12:13;;;;;;;8.10;3.20;;;;;;;14.72;nan;99175.66;4952016;28;96890;-77
2023/10/30 03:14:39;;;;;;;6.95;3.30;;;;;;;14.74;nan;99186.13;4936595;28;98444;-76
2023/10/30 03:17:05;;;;;;;5.93;3.03;;;;;;;14.53;nan;99147.03;4936565;28;98564;-76
2023/10/30 03:19:32;;;;;;;12.98;3.88;;;;;;;14.67;nan;99183.06;4935138;28;96531;-76
2023/10/30 03:21:57;;;;;;;8.68;3.85;;;;;;;14.45;nan;99157.22;4919280;28;96862;-76
2023/10/30 03:24:23;;;;;;;7.30;3.22;;;;;;;14.36;nan;99131.47;4935304;28;97392;-78
2023/10/30 03:26:50;;;;;;;8.43;3.03;;;;;;;14.34;nan;99134.22;4935196;28;97779;-77
2023/10/30 03:29:16;;;;;;;5.15;2.60;;;;;;;14.40;nan;99176.03;4935465;28;96510;-76
2023/10/30 03:31:41;;;;;;;5.30;2.53;;;;;;;14.44;nan;99177.50;4935276;28;96816;-76
2023/10/30 03:34:07;;;;;;;6.00;2.85;;;;;;;14.37;nan;99152.50;4918742;28;101543;-76
2023/10/30 03:36:32;;;;;;;8.27;3.00;;;;;;;14.39;nan;99161.13;4919003;28;101321;-76
2023/10/30 03:38:58;;;;;;;9.32;2.20;;;;;;;14.54;nan;99185.69;4935416;28;96570;-77
2023/10/30 03:41:24;;;;;;;5.35;2.97;;;;;;;14.49;nan;99182.50;4935374;28;96772;-76
2023/10/30 03:43:49;;;;;;;6.38;2.80;;;;;;;14.57;nan;99182.00;4918120;28;101230;-77
2023/10/30 03:46:15;;;;;;;11.55;2.92;;;;;;;14.52;nan;99171.75;4937798;28;99984;-76
2023/10/30 03:48:41;;;;;;;6.78;2.17;;;;;;;14.57;nan;99168.78;4922379;28;96804;-76
2023/10/30 03:51:07;;;;;;;6.53;2.42;;;;;;;14.50;nan;99174.47;4937974;28;96897;-76
2023/10/30 03:53:32;;;;;;;6.97;2.92;;;;;;;14.54;nan;99185.69;4937663;28;101660;-76
2023/10/30 03:55:58;;;;;;;10.82;3.33;;;;;;;14.24;nan;99146.34;4937945;28;97544;-76
2023/10/30 03:58:25;;;;;;;6.10;3.08;;;;;;;14.35;nan;99164.94;4954512;28;96583;-76
2023/10/30 04:00:51;;;;;;;5.65;2.17;;;;;;;14.44;nan;99184.59;4938148;28;96841;-76
2023/10/30 04:03:16;;;;;;;9.20;3.10;;;;;;;14.45;nan;99189.75;4921396;28;97837;-76
2023/10/30 04:05:42;;;;;;;7.25;2.60;;;;;;;14.33;nan;99184.47;4921434;28;101456;-76
2023/10/30 04:08:08;;;;;;;9.43;3.00;;;;;;;14.41;nan;99212.03;4955070;28;96527;-76
2023/10/30 04:10:33;;;;;;;9.05;3.25;;;;;;;14.38;nan;99224.63;4937623;28;96963;-78
2023/10/30 04:12:59;;;;;;;9.55;2.83;;;;;;;14.35;nan;99230.09;4937399;28;100766;-76
2023/10/30 04:15:24;;;;;;;6.80;2.45;;;;;;;14.33;nan;99221.44;4937343;28;101413;-77
2023/10/30 04:17:50;;;;;;;6.57;3.50;;;;;;;14.30;nan;99222.47;4954730;28;98197;-76
2023/10/30 04:20:15;;;;;;;5.95;2.22;;;;;;;14.22;nan;99211.56;4937576;28;96831;-78
2023/10/30 04:22:41;;;;;;;8.27;2.55;;;;;;;14.23;nan;99222.03;4953853;28;98102;-76
2023/10/30 04:25:07;;;;;;;6.30;2.70;;;;;;;14.27;nan;99241.16;4938180;28;97386;-76
2023/10/30 04:27:36;;;;;;;7.82;3.00;;;;;;;14.01;nan;99196.22;4937717;28;96660;-76
2023/10/30 04:30:02;;;;;;;9.55;2.90;;;;;;;14.22;nan;99232.69;4937549;28;96929;-76
2023/10/30 04:32:27;;;;;;;13.20;3.53;;;;;;;14.16;nan;99228.66;4936663;28;101005;-76
2023/10/30 04:34:53;;;;;;;11.63;4.40;;;;;;;14.00;nan;99199.81;4937312;28;101566;-76
2023/10/30 04:37:20;;;;;;;6.43;3.17;;;;;;;14.19;nan;99225.81;4937260;28;96520;-76
2023/10/30 04:39:46;;;;;;;5.95;2.45;;;;;;;14.18;nan;99221.50;4955033;28;96822;-76
2023/10/30 04:42:12;;;;;;;6.95;2.70;;;;;;;14.30;nan;99238.31;4954848;28;97944;-76
2023/10/30 04:44:37;;;;;;;12.18;2.83;;;;;;;14.31;nan;99247.06;4936588;28;101166;-76
2023/10/30 04:47:03;;;;;;;7.05;2.83;;;;;;;14.32;nan;99246.16;4953448;28;96649;-76
2023/10/30 04:49:34;;;;;;;7.57;2.83;;;;;;;14.16;nan;99225.19;4937949;28;96892;-77
2023/10/30 04:52:00;;;;;;;6.45;2.58;;;;;;;14.22;nan;99230.94;4937306;28;98012;-76
2023/10/30 04:54:26;;;;;;;4.95;2.45;;;;;;;14.14;nan;99225.31;4937416;28;97825;-76
2023/10/30 04:56:51;;;;;;;7.38;2.80;;;;;;;14.10;nan;99218.50;4952962;28;96729;-76
2023/10/30 04:59:17;;;;;;;6.22;2.58;;;;;;;14.26;nan;99250.03;4937489;28;96843;-76
2023/10/30 05:01:42;;;;;;;7.85;2.85;;;;;;;14.14;nan;99240.28;4937097;28;97452;-76
2023/10/30 05:04:08;;;;;;;9.80;2.95;;;;;;;14.03;nan;99212.81;4936801;28;99207;-79
2023/10/30 05:06:33;;;;;;;5.70;2.47;;;;;;;13.92;nan;99199.47;4953596;28;96598;-78
2023/10/30 05:08:59;;;;;;;10.45;2.50;;;;;;;14.07;nan;99217.88;4953286;28;97031;-81
2023/10/30 05:11:24;;;;;;;4.10;2.25;;;;;;;14.21;nan;99242.41;4936769;28;97531;-77
2023/10/30 05:13:50;;;;;;;3.55;2.28;;;;;;;14.17;nan;99237.44;4936809;28;101441;-77
2023/10/30 05:16:15;;;;;;;4.93;2.00;;;;;;;14.19;nan;99240.81;4940239;28;96668;-76
2023/10/30 05:18:41;;;;;;;2.70;1.75;;;;;;;14.08;nan;99238.91;4956597;28;97000;-76
2023/10/30 05:21:07;;;;;;;2.92;2.17;;;;;;;14.25;nan;99238.63;4923690;28;97382;-79
2023/10/30 05:23:32;;;;;;;10.77;3.08;;;;;;;14.25;nan;99227.22;4939761;28;101861;-81
2023/10/30 05:25:58;;;;;;;4.53;2.20;;;;;;;14.32;nan;99248.78;4924020;28;96635;-81
2023/10/30 05:28:23;;;;;;;7.45;3.00;;;;;;;14.19;nan;99243.44;4940436;28;96937;-81
2023/10/30 05:30:49;;;;;;;10.85;3.28;;;;;;;13.92;nan;99209.19;4957762;28;97592;-81
2023/10/30 05:33:14;;;;;;;7.30;2.40;;;;;;;14.17;nan;99262.03;4940237;28;97639;-83
2023/10/30 05:35:40;;;;;;;10.68;3.05;;;;;;;13.92;nan;99228.50;4956643;28;96549;-81
2023/10/30 05:38:05;;;;;;;8.20;3.10;;;;;;;13.88;nan;99212.97;4957086;28;96785;-81
2023/10/30 05:40:31;;;;;;;12.88;2.70;;;;;;;14.10;nan;99244.06;4939946;28;98170;-80
2023/10/30 05:42:56;;;;;;;13.35;3.00;;;;;;;13.91;nan;99220.69;4956102;28;97353;-78
2023/10/30 05:45:22;;;;;;;6.63;2.70;;;;;;;13.97;nan;99236.13;4939368;28;96834;-80
2023/10/30 05:47:48;;;;;;;6.50;2.65;;;;;;;13.74;nan;99195.41;4939820;28;96593;-78
2023/10/30 05:50:13;;;;;;;7.65;3.53;;;;;;;14.06;nan;99238.16;4923774;28;98416;-80
2023/10/30 05:52:39;;;;;;;12.98;4.78;;;;;;;13.71;nan;99177.97;4939658;28;100560;-80
2023/10/30 05:55:05;;;;;;;12.05;6.88;;;;;;;14.01;nan;99224.41;4924204;28;96602;-79
2023/10/30 05:57:31;;;;;;;10.98;6.50;;;;;;;14.15;nan;99224.34;4957886;28;96773;-80
2023/10/30 05:59:56;;;;;;;17.75;4.82;;;;;;;14.18;nan;99233.84;4955934;28;98018;-75
2023/10/30 06:02:22;;;;;;;5.53;3.28;;;;;;;14.16;nan;99228.66;4939339;28;99194;-77
2023/10/30 06:04:47;;;;;;;10.70;3.10;;;;;;;13.90;nan;99189.97;4940003;28;96622;-78
2023/10/30 06:07:13;;;;;;;8.30;2.60;;;;;;;14.10;nan;99247.53;4923401;28;96833;-73
2023/10/30 06:09:38;;;;;;;6.07;2.33;;;;;;;14.20;nan;99250.44;4955044;28;98004;-74
2023/10/30 06:12:04;;;;;;;7.35;2.60;;;;;;;14.17;nan;99250.66;4939353;28;97566;-75
2023/10/30 06:14:30;;;;;;;8.25;2.85;;;;;;;14.25;nan;99250.97;4956314;28;96516;-74
2023/10/30 06:16:55;;;;;;;6.82;2.72;;;;;;;14.48;nan;99276.69;4956192;28;96877;-74
2023/10/30 06:19:21;;;;;;;12.65;3.55;;;;;;;14.56;nan;99288.56;4956678;28;98123;-74
2023/10/30 06:21:46;;;;;;;7.60;3.40;;;;;;;14.35;nan;99254.69;4955628;28;97884;-75
2023/10/30 06:24:12;;;;;;;11.30;3.67;;;;;;;14.58;nan;99291.97;4939273;28;96709;-75
2023/10/30 06:26:40;;;;;;;21.42;4.38;;;;;;;14.60;nan;99284.78;4956140;28;96893;-74
2023/10/30 06:29:06;;;;;;;9.15;3.33;;;;;;;14.71;nan;99309.50;4938691;28;100929;-74
2023/10/30 06:31:32;;;;;;;11.82;4.10;;;;;;;14.50;nan;99266.88;4955450;28;97304;-74
2023/10/30 06:33:57;;;;;;;10.93;4.20;;;;;;;14.84;nan;99295.50;4956404;28;96707;-74
2023/10/30 06:36:23;;;;;;;8.18;4.07;;;;;;;14.47;nan;99219.56;4938944;28;96847;-73
2023/10/30 06:38:48;;;;;;;9.20;3.40;;;;;;;14.83;nan;99272.66;4955266;28;97607;-80
2023/10/30 06:41:14;;;;;;;11.43;3.13;;;;;;;14.85;nan;99260.19;4938695;28;101483;-79
2023/10/30 06:43:39;;;;;;;6.40;3.45;;;;;;;15.04;nan;99268.56;4922673;28;96640;-79
2023/10/30 06:46:05;;;;;;;5.18;2.92;;;;;;;14.97;nan;99246.13;4955158;28;97022;-78
2023/10/30 06:48:31;;;;;;;5.50;2.55;;;;;;;15.29;nan;99295.91;4921679;28;101664;-79
2023/10/30 06:50:57;;;;;;;6.30;3.30;;;;;;;15.18;nan;99262.28;4939074;28;97436;-79
2023/10/30 06:53:23;;;;;;;5.85;2.53;;;;;;;15.28;nan;99273.94;4955432;28;96621;-80
2023/10/30 06:55:50;;;;;;;15.07;2.42;;;;;;;15.39;nan;99296.97;4939123;28;96837;-80
2023/10/30 06:58:16;;;;;;;7.78;2.97;;;;;;;15.49;nan;99313.88;4921686;28;100575;-83
2023/10/30 07:00:42;;;;;;;5.95;2.05;;;;;;;15.55;nan;99315.25;4938797;28;97466;-83
2023/10/30 07:03:08;;;;;;;4.28;2.47;;;;;;;15.62;nan;99309.44;4922738;28;96544;-84
2023/10/30 07:05:34;;;;;;;5.22;1.98;;;;;;;15.57;nan;99310.72;4939636;28;96861;-86
2023/10/30 07:07:59;;;;;;;4.03;2.17;;;;;;;15.39;nan;99267.91;4956231;28;97374;-76
2023/10/30 07:10:25;;;;;;;6.05;2.35;;;;;;;15.62;nan;99304.13;4954846;28;97397;-76
2023/10/30 07:12:50;;;;;;;5.07;2.00;;;;;;;15.77;nan;99306.69;4956332;28;96500;-76
2023/10/30 07:15:16;;;;;;;4.82;2.40;;;;;;;15.97;nan;99311.38;4955430;28;96763;-76
2023/10/30 07:17:41;;;;;;;5.95;2.53;;;;;;;16.05;nan;99316.94;4937999;28;101286;-78
2023/10/30 07:20:08;;;;;;;6.70;2.42;;;;;;;15.83;nan;99280.63;4954491;28;97889;-77
2023/10/30 07:22:34;;;;;;;9.82;2.92;;;;;;;15.91;nan;99258.91;4937761;28;96607;-77
2023/10/30 07:25:00;;;;;;;25.30;3.00;;;;;;;16.02;nan;99260.75;4922067;28;96554;-78
2023/10/30 07:27:26;;;;;;;20.50;2.90;;;;;;;16.00;nan;99279.41;4937973;28;101477;-78
2023/10/30 07:29:52;;;;;;;10.43;2.70;;;;;;;15.87;nan;99256.56;4954340;28;97913;-77
2023/10/30 07:32:17;;;;;;;7.70;3.17;;;;;;;15.84;nan;99290.22;4938829;28;97129;-77
2023/10/30 07:34:44;;;;;;;8.23;3.50;;;;;;;15.93;nan;99301.13;4956079;28;96788;-77
2023/10/30 07:37:09;;;;;;;5.32;2.15;;;;;;;15.91;nan;99306.53;4954947;28;97356;-77
2023/10/30 07:39:35;;;;;;;5.10;1.92;;;;;;;15.88;nan;99313.81;4937973;28;100767;-76
2023/10/30 07:42:01;;;;;;;6.70;2.17;;;;;;;15.84;nan;99311.41;4938387;28;96544;-78
2023/10/30 07:44:27;;;;;;;6.35;2.17;;;;;;;15.73;nan;99311.31;4937298;28;96865;-76
2023/10/30 07:46:52;;;;;;;3.70;2.05;;;;;;;15.42;nan;99280.03;4955298;28;97853;-77
2023/10/30 07:49:18;;;;;;;7.30;2.20;;;;;;;15.64;nan;99301.38;4954079;28;97470;-76
2023/10/30 07:51:43;;;;;;;6.68;2.00;;;;;;;15.77;nan;99333.13;4937742;28;96700;-75
2023/10/30 07:54:09;;;;;;;6.25;2.15;;;;;;;15.80;nan;99335.56;4937766;28;96804;-75
2023/10/30 07:56:34;;;;;;;5.47;2.10;;;;;;;15.77;nan;99333.13;4937834;28;97427;-74
2023/10/30 07:59:00;;;;;;;4.30;2.10;;;;;;;15.72;nan;99316.75;4955392;28;97910;-74
2023/10/30 08:01:25;;;;;;;5.55;2.15;;;;;;;15.69;nan;99309.88;4955896;28;96576;-75
2023/10/30 08:03:51;;;;;;;6.55;1.88;;;;;;;16.07;nan;99343.31;4954712;28;96758;-74
2023/10/30 08:06:16;;;;;;;6.00;1.88;;;;;;;15.57;nan;99279.81;4953912;28;98097;-74
2023/10/30 08:08:42;;;;;;;4.15;1.90;;;;;;;15.77;nan;99296.09;4937216;28;100896;-75
2023/10/30 08:11:09;;;;;;;3.60;1.92;;;;;;;16.03;nan;99337.41;4953745;28;97006;-75
2023/10/30 08:13:35;;;;;;;7.13;2.20;;;;;;;16.09;nan;99345.88;4954018;28;96800;-74
2023/10/30 08:16:00;;;;;;;3.20;1.60;;;;;;;16.03;nan;99341.88;4953977;28;97655;-74
2023/10/30 08:18:26;;;;;;;5.07;1.48;;;;;;;16.13;nan;99342.88;4955123;28;97382;-75
2023/10/30 08:20:51;;;;;;;5.55;2.05;;;;;;;16.24;nan;99345.59;4937431;28;96570;-74
2023/10/30 08:23:18;;;;;;;2.92;1.65;;;;;;;16.46;nan;99357.25;4921668;28;96866;-74
2023/10/30 08:25:43;;;;;;;2.88;1.65;;;;;;;16.39;nan;99322.44;4937192;28;101145;-74
2023/10/30 08:28:09;;;;;;;8.70;2.15;;;;;;;16.84;nan;99353.59;4937276;28;101197;-77
2023/10/30 08:30:34;;;;;;;8.10;2.13;;;;;;;17.01;nan;99366.41;4937470;28;96571;-74
2023/10/30 08:33:03;;;;;;;3.45;1.33;;;;;;;17.07;nan;99347.38;4955146;28;96790;-74
2023/10/30 08:35:32;;;;;;;6.78;1.77;;;;;;;17.12;nan;99326.66;4936114;28;97770;-74
2023/10/30 08:37:58;;;;;;;6.43;1.60;;;;;;;17.52;nan;99336.84;4953015;28;96546;-75
2023/10/30 08:40:25;;;;;;;2.97;1.65;;;;;;;18.18;nan;99362.63;4953501;28;96578;-74
2023/10/30 08:42:50;;;;;;;3.83;1.77;;;;;;;18.31;nan;99319.03;4936974;28;96661;-75
2023/10/30 08:45:16;;;;;;;9.27;2.60;;;;;;;19.23;nan;99361.88;4935993;28;101108;-74
2023/10/30 08:47:42;;;;;;;7.03;2.22;;;;;;;19.31;nan;99352.41;4936464;28;101341;-75
2023/10/30 08:50:08;;;;;;;3.75;1.55;;;;;;;19.81;nan;99365.84;4954837;28;96637;-74
2023/10/30 08:52:35;;;;;;;7.40;2.20;;;;;;;20.46;nan;99367.13;4940769;28;96909;-74
2023/10/30 08:55:00;;;;;;;7.45;1.85;;;;;;;20.65;nan;99350.34;4940175;28;97615;-74
2023/10/30 08:57:26;;;;;;;3.20;1.67;;;;;;;20.89;nan;99347.25;4940007;28;101164;-75
2023/10/30 08:59:51;;;;;;;3.80;1.52;;;;;;;21.57;nan;99357.81;4956363;28;96566;-77
2023/10/30 09:02:17;;;;;;;5.57;1.55;;;;;;;21.85;nan;99365.88;4957012;28;96850;-74
2023/10/30 09:04:42;;;;;;;3.30;1.65;;;;;;;22.52;nan;99370.00;4958002;28;97602;-74
2023/10/30 09:07:08;;;;;;;2.67;1.27;;;;;;;23.00;nan;99354.56;4924074;28;99433;-74
2023/10/30 09:09:34;;;;;;;4.35;1.40;;;;;;;23.73;nan;99317.56;4957088;28;96591;-74
2023/10/30 09:12:00;;;;;;;5.03;1.70;;;;;;;25.11;nan;99360.94;4940379;28;96859;-76
2023/10/30 09:14:25;;;;;;;4.15;1.45;;;;;;;25.36;nan;99351.03;4940590;28;97661;-76
2023/10/30 09:16:51;;;;;;;3.75;1.42;;;;;;;25.65;nan;99323.56;4940601;28;97378;-75
2023/10/30 09:19:17;;;;;;;2.28;1.25;;;;;;;27.15;nan;99317.97;4940276;28;96678;-76
2023/10/30 09:21:42;;;;;;;5.63;1.48;;;;;;;27.65;nan;99325.34;4924408;28;96867;-76
2023/10/30 09:24:08;;;;;;;2.83;1.60;;;;;;;28.22;nan;99307.66;4939277;28;97550;-76
2023/10/30 09:26:34;;;;;;;4.47;1.30;;;;;;;27.82;nan;99336.81;4955928;28;97480;-76
2023/10/30 09:28:59;;;;;;;4.03;1.75;;;;;;;26.99;nan;99345.88;4939735;28;96588;-76
2023/10/30 09:31:25;;;;;;;4.72;2.08;;;;;;;26.03;nan;99323.78;4957764;28;96820;-76
2023/10/30 09:33:51;;;;;;;2.58;1.20;;;;;;;25.46;nan;99342.78;4957376;28;97543;-76
2023/10/30 09:36:16;;;;;;;3.75;1.27;;;;;;;24.49;nan;99350.66;4907405;28;101401;-75
2023/10/30 09:38:42;;;;;;;2.25;1.42;;;;;;;23.60;nan;99335.91;4956158;28;96552;-76
2023/10/30 09:41:09;;;;;;;1.95;1.40;;;;;;;23.18;nan;99304.50;4956825;28;96861;-75
2023/10/30 09:43:37;;;;;;;2.33;1.20;;;;;;;22.74;nan;99299.16;4939688;28;96878;-75
2023/10/30 09:46:06;;;;;;;2.83;1.65;;;;;;;22.64;nan;99311.78;4939123;28;100897;-75
2023/10/30 09:48:32;;;;;;;6.10;1.95;;;;;;;22.82;nan;99339.34;4923637;28;96514;-76
2023/10/30 09:50:58;;;;;;;2.60;1.27;;;;;;;22.76;nan;99336.47;4923346;28;96934;-75
2023/10/30 09:53:25;;;;;;;4.55;1.25;;;;;;;22.79;nan;99331.63;4923363;28;97659;-75
2023/10/30 09:55:53;;;;;;;4.47;1.38;;;;;;;22.76;nan;99344.47;4939154;28;99270;-75
2023/10/30 09:58:21;;;;;;;2.22;1.27;;;;;;;22.54;nan;99356.47;4955831;28;96765;-74
2023/10/30 10:00:47;;;;;;;2.30;1.20;;;;;;;22.31;nan;99330.19;4939542;28;96837;-75
2023/10/30 10:03:12;;;;;;;6.13;1.70;;;;;;;22.46;nan;99351.91;4939422;28;98088;-75
2023/10/30 10:05:38;;;;;;;2.22;1.20;;;;;;;22.64;nan;99357.25;4955802;28;98020;-75
2023/10/30 10:08:04;;;;;;;2.80;1.10;;;;;;;22.54;nan;99332.41;4939522;28;96761;-75
2023/10/30 10:11:02;;;;;;;2.15;1.15;;;;;;;22.68;nan;99358.63;4938996;28;96974;-75
2023/10/30 10:13:33;;;;;;;4.32;1.67;;;;;;;22.65;nan;99347.38;4938861;28;98140;-75
2023/10/30 10:16:01;;;;;;;1.33;1.05;;;;;;;22.59;nan;99360.38;4955391;28;97519;-74
2023/10/30 10:18:28;;;;;;;4.05;1.13;;;;;;;22.48;nan;99322.31;4922925;28;96654;-75
2023/10/30 10:21:14;;;;;;;1.95;1.23;;;;;;;22.67;nan;99348.91;4955511;28;96866;-75
2023/10/30 10:23:43;;;;;;;1.95;0.80;;;;;;;22.57;nan;99326.75;4922706;28;97559;-75
2023/10/30 10:26:15;;;;;;;4.85;1.38;;;;;;;22.27;nan;99287.88;4955229;28;97995;-75
2023/10/30 10:28:49;;;;;;;2.42;0.93;;;;;;;22.60;nan;99334.47;4957078;28;96683;-75
2023/10/30 10:31:18;;;;;;;6.07;1.00;;;;;;;22.60;nan;99319.28;4940329;28;96796;-74
2023/10/30 10:33:43;;;;;;;5.43;1.50;;;;;;;22.47;nan;99294.75;4923254;28;97575;-73
2023/10/30 10:36:10;;;;;;;2.65;0.90;;;;;;;22.55;nan;99321.56;4938608;28;101416;-77
2023/10/30 10:38:36;;;;;;;2.55;0.93;;;;;;;22.41;nan;99294.53;4938983;28;96589;-76
2023/10/30 10:41:03;;;;;;;3.60;1.48;;;;;;;22.40;nan;99293.69;4955454;28;96881;-76
2023/10/30 10:43:29;;;;;;;2.78;1.20;;;;;;;22.42;nan;99304.22;4938326;28;101327;-77
2023/10/30 10:45:56;;;;;;;0.85;0.85;;;;;;;22.51;nan;99314.00;4938306;28;101127;-76
2023/10/30 10:48:23;;;;;;;1.42;0.70;;;;;;;22.38;nan;99309.88;4955541;28;96826;-76
2023/10/30 10:50:49;;;;;;;1.25;0.70;;;;;;;22.21;nan;99299.16;4938823;28;96899;-77
2023/10/30 10:53:18;;;;;;;1.08;0.70;;;;;;;22.03;nan;99275.91;4955185;28;97410;-76
2023/10/30 10:55:46;;;;;;;2.05;0.90;;;;;;;22.26;nan;99299.56;4955278;28;97305;-76
2023/10/30 10:58:16;;;;;;;1.05;0.80;;;;;;;22.03;nan;99283.09;4922636;28;96712;-75
2023/10/30 11:00:48;;;;;;;1.10;0.87;;;;;;;22.18;nan;99297.63;4938981;28;96952;-76
2023/10/30 11:03:14;;;;;;;2.05;0.90;;;;;;;22.11;nan;99301.88;4954213;28;97469;-76
2023/10/30 11:05:40;;;;;;;2.88;0.85;;;;;;;21.91;nan;99264.59;4922320;28;100354;-76
2023/10/30 11:08:07;;;;;;;3.05;1.02;;;;;;;22.07;nan;99297.81;4922434;28;96572;-75
2023/10/30 11:10:37;;;;;;;4.07;0.80;;;;;;;21.97;nan;99284.53;4938363;28;96878;-78
2023/10/30 11:13:39;;;;;;;0.98;0.75;;;;;;;21.93;nan;99297.34;4937122;28;99931;-75
2023/10/30 11:16:14;;;;;;;1.48;0.93;;;;;;;21.90;nan;99284.31;4938014;28;101416;-75
2023/10/30 11:18:39;;;;;;;3.67;1.40;;;;;;;21.73;nan;99270.88;4922459;28;96794;-77
2023/10/30 11:21:13;;;;;;;1.48;0.90;;;;;;;21.78;nan;99282.81;4955652;28;96893;-77
2023/10/30 11:23:45;;;;;;;0.95;0.75;;;;;;;21.76;nan;99281.25;4922672;28;97442;-77
2023/10/30 11:26:11;;;;;;;1.95;0.80;;;;;;;21.63;nan;99262.94;4955894;28;98367;-77
2023/10/30 11:28:37;;;;;;;2.13;1.05;;;;;;;21.50;nan;99260.63;4955506;28;96538;-77
2023/10/30 11:31:08;;;;;;;3.00;1.30;;;;;;;21.53;nan;99271.00;4954468;28;96872;-75
2023/10/30 11:33:35;;;;;;;3.88;1.10;;;;;;;21.15;nan;99211.44;4955865;28;98289;-77
2023/10/30 11:36:15;;;;;;;2.28;1.25;;;;;;;21.38;nan;99280.44;4954421;28;97489;-77
2023/10/30 11:38:59;;;;;;;2.80;1.15;;;;;;;21.36;nan;99280.63;4938038;28;96624;-77
2023/10/30 11:41:27;;;;;;;2.30;1.10;;;;;;;21.10;nan;99255.53;4956264;28;96804;-71
2023/10/30 11:44:08;;;;;;;3.58;1.17;;;;;;;20.52;nan;99235.13;4953774;28;98014;-79